DLH322 EDDF-LICJ
Flight info
| Callsign | DLH322 |
|---|---|
| Flight time | 1h 54m |
| Altitude | 35000 |
| Route | ANEKI2L/18 ANEKI Y163 NATOR DCT TRA DCT RIPUS DCT GERSA DCT SOSON DCT ODINA DCT ELB DCT VELAD DCT TINTO DCT POKAV DCT BETOT DCT RUVIP DCT RONAB DCT GIANO |
| Aircraft | A321/M-SDE3FGHIRWY/LB1 |
Departure
| Time | 2026-04-14 08:53 |
|---|---|
| Airport | Frankfurt Main Airport (EDDF) |
Arrival
| Time | 2026-04-14 10:47 |
|---|---|
| Airport | Falcone–Borsellino Airport (LICJ) |
| Time | Latitude | Longitude | Altitude | Speed | Heading |
|---|---|---|---|---|---|
| 2026-04-14 08:01 | 50.04431 | 8.56329 | 363 ft | 0 kts | 167° |
| 2026-04-14 08:41 | 50.04441 | 8.56325 | 356 ft | 3 kts | 168° |
| 2026-04-14 08:42 | 50.04463 | 8.56318 | 359 ft | 2 kts | 166° |
| 2026-04-14 08:42 | 50.04483 | 8.56313 | 359 ft | 3 kts | 197° |
| 2026-04-14 08:42 | 50.04500 | 8.56330 | 363 ft | 3 kts | 234° |
| 2026-04-14 08:42 | 50.04511 | 8.56359 | 362 ft | 3 kts | 248° |
| 2026-04-14 08:43 | 50.04515 | 8.56378 | 360 ft | 0 kts | 249° |
| 2026-04-14 08:45 | 50.04515 | 8.56377 | 360 ft | 1 kts | 249° |
| 2026-04-14 08:46 | 50.04506 | 8.56340 | 362 ft | 6 kts | 249° |
| 2026-04-14 08:46 | 50.04489 | 8.56268 | 356 ft | 8 kts | 249° |
| 2026-04-14 08:46 | 50.04469 | 8.56184 | 364 ft | 9 kts | 249° |
| 2026-04-14 08:46 | 50.04445 | 8.56088 | 358 ft | 10 kts | 249° |
| 2026-04-14 08:47 | 50.04393 | 8.56031 | 356 ft | 10 kts | 176° |
| 2026-04-14 08:47 | 50.04321 | 8.56068 | 355 ft | 11 kts | 161° |
| 2026-04-14 08:47 | 50.04261 | 8.56027 | 359 ft | 12 kts | 243° |
| 2026-04-14 08:47 | 50.04225 | 8.55882 | 360 ft | 18 kts | 249° |
| 2026-04-14 08:48 | 50.04180 | 8.55691 | 360 ft | 19 kts | 250° |
| 2026-04-14 08:48 | 50.04131 | 8.55487 | 356 ft | 21 kts | 250° |
| 2026-04-14 08:48 | 50.04081 | 8.55277 | 361 ft | 21 kts | 250° |
| 2026-04-14 08:48 | 50.04031 | 8.55068 | 358 ft | 21 kts | 250° |
| 2026-04-14 08:49 | 50.03979 | 8.54848 | 359 ft | 23 kts | 250° |
| 2026-04-14 08:49 | 50.03921 | 8.54609 | 354 ft | 24 kts | 250° |
| 2026-04-14 08:49 | 50.03864 | 8.54382 | 354 ft | 19 kts | 239° |
| 2026-04-14 08:49 | 50.03798 | 8.54212 | 356 ft | 19 kts | 250° |
| 2026-04-14 08:50 | 50.03765 | 8.54021 | 351 ft | 19 kts | 248° |
| 2026-04-14 08:50 | 50.03708 | 8.53833 | 345 ft | 20 kts | 246° |
| 2026-04-14 08:50 | 50.03656 | 8.53625 | 344 ft | 21 kts | 249° |
| 2026-04-14 08:50 | 50.03601 | 8.53403 | 336 ft | 23 kts | 249° |
| 2026-04-14 08:51 | 50.03544 | 8.53167 | 334 ft | 24 kts | 250° |
| 2026-04-14 08:51 | 50.03484 | 8.52920 | 335 ft | 25 kts | 248° |
| 2026-04-14 08:51 | 50.03427 | 8.52701 | 333 ft | 15 kts | 248° |
| 2026-04-14 08:51 | 50.03360 | 8.52596 | 335 ft | 15 kts | 189° |
| 2026-04-14 08:52 | 50.03196 | 8.52594 | 335 ft | 49 kts | 180° |
| 2026-04-14 08:52 | 50.02605 | 8.52601 | 333 ft | 119 kts | 180° |
| 2026-04-14 08:52 | 50.01576 | 8.52613 | 336 ft | 174 kts | 179° |
| 2026-04-14 08:52 | 50.00321 | 8.52632 | 776 ft | 186 kts | 179° |
| 2026-04-14 08:53 | 49.99023 | 8.52685 | 1535 ft | 188 kts | 178° |
| 2026-04-14 08:53 | 49.97661 | 8.52781 | 1894 ft | 207 kts | 178° |
| 2026-04-14 08:53 | 49.96148 | 8.52899 | 2175 ft | 227 kts | 177° |
| 2026-04-14 08:53 | 49.94532 | 8.53019 | 2723 ft | 235 kts | 177° |
| 2026-04-14 08:54 | 49.92877 | 8.53138 | 3362 ft | 240 kts | 176° |
| 2026-04-14 08:54 | 49.91199 | 8.53260 | 4013 ft | 243 kts | 176° |
| 2026-04-14 08:54 | 49.89507 | 8.53380 | 4683 ft | 244 kts | 177° |
| 2026-04-14 08:54 | 49.87810 | 8.53497 | 5325 ft | 245 kts | 178° |
| 2026-04-14 08:55 | 49.86103 | 8.53613 | 5942 ft | 246 kts | 178° |
| 2026-04-14 08:55 | 49.84376 | 8.53727 | 6544 ft | 249 kts | 178° |
| 2026-04-14 08:55 | 49.82639 | 8.53844 | 7111 ft | 250 kts | 178° |
| 2026-04-14 08:55 | 49.80899 | 8.53960 | 7691 ft | 251 kts | 178° |
| 2026-04-14 08:56 | 49.79151 | 8.54081 | 8311 ft | 251 kts | 178° |
| 2026-04-14 08:56 | 49.77404 | 8.54063 | 8865 ft | 253 kts | 186° |
| 2026-04-14 08:56 | 49.75599 | 8.53818 | 9093 ft | 271 kts | 186° |
| 2026-04-14 08:56 | 49.73696 | 8.53557 | 9510 ft | 282 kts | 186° |
| 2026-04-14 08:57 | 49.71702 | 8.53287 | 10191 ft | 285 kts | 186° |
| 2026-04-14 08:57 | 49.69695 | 8.53019 | 10453 ft | 304 kts | 186° |
| 2026-04-14 08:57 | 49.67514 | 8.52731 | 10583 ft | 324 kts | 186° |
| 2026-04-14 08:57 | 49.65201 | 8.52428 | 10711 ft | 343 kts | 186° |
| 2026-04-14 08:58 | 49.62786 | 8.52109 | 11100 ft | 352 kts | 186° |
| 2026-04-14 08:58 | 49.60332 | 8.51785 | 11632 ft | 356 kts | 186° |
| 2026-04-14 08:58 | 49.57855 | 8.51460 | 12217 ft | 359 kts | 186° |
| 2026-04-14 08:58 | 49.55354 | 8.51134 | 12810 ft | 362 kts | 186° |
| 2026-04-14 08:59 | 49.52834 | 8.50802 | 13415 ft | 364 kts | 186° |
| 2026-04-14 08:59 | 49.50299 | 8.50467 | 13993 ft | 367 kts | 186° |
| 2026-04-14 08:59 | 49.47744 | 8.50134 | 14495 ft | 370 kts | 186° |
| 2026-04-14 08:59 | 49.45170 | 8.49797 | 14987 ft | 372 kts | 186° |
| 2026-04-14 09:00 | 49.42582 | 8.49457 | 15481 ft | 375 kts | 186° |
| 2026-04-14 09:00 | 49.39974 | 8.49116 | 15987 ft | 377 kts | 186° |
| 2026-04-14 09:00 | 49.37354 | 8.48772 | 16485 ft | 379 kts | 186° |
| 2026-04-14 09:00 | 49.35600 | 8.48542 | 16814 ft | 381 kts | 186° |
| 2026-04-14 09:01 | 49.32950 | 8.48195 | 17297 ft | 384 kts | 186° |
| 2026-04-14 09:01 | 49.30282 | 8.47845 | 17760 ft | 386 kts | 186° |
| 2026-04-14 09:01 | 49.27593 | 8.47493 | 18215 ft | 389 kts | 186° |
| 2026-04-14 09:01 | 49.24891 | 8.47139 | 18641 ft | 391 kts | 186° |
| 2026-04-14 09:02 | 49.22165 | 8.46785 | 19047 ft | 394 kts | 186° |
| 2026-04-14 09:02 | 49.19424 | 8.46434 | 19428 ft | 396 kts | 186° |
| 2026-04-14 09:02 | 49.16668 | 8.46082 | 19820 ft | 399 kts | 186° |
| 2026-04-14 09:02 | 49.13897 | 8.45726 | 20221 ft | 401 kts | 186° |
| 2026-04-14 09:03 | 49.11109 | 8.45365 | 20624 ft | 403 kts | 186° |
| 2026-04-14 09:03 | 49.08308 | 8.44997 | 21021 ft | 405 kts | 186° |
| 2026-04-14 09:03 | 49.05511 | 8.44449 | 21416 ft | 407 kts | 193° |
| 2026-04-14 09:03 | 49.02743 | 8.43485 | 21811 ft | 408 kts | 194° |
| 2026-04-14 09:04 | 48.99966 | 8.42509 | 22210 ft | 411 kts | 194° |
| 2026-04-14 09:04 | 48.97174 | 8.41534 | 22596 ft | 413 kts | 193° |
| 2026-04-14 09:04 | 48.94364 | 8.40557 | 22980 ft | 415 kts | 193° |
| 2026-04-14 09:04 | 48.91538 | 8.39578 | 23364 ft | 418 kts | 193° |
| 2026-04-14 09:05 | 48.88733 | 8.38605 | 23736 ft | 420 kts | 193° |
| 2026-04-14 09:05 | 48.85877 | 8.37613 | 24057 ft | 422 kts | 193° |
| 2026-04-14 09:05 | 48.83008 | 8.36619 | 24385 ft | 423 kts | 193° |
| 2026-04-14 09:05 | 48.80134 | 8.35624 | 24716 ft | 425 kts | 193° |
| 2026-04-14 09:06 | 48.77245 | 8.34622 | 25037 ft | 427 kts | 194° |
| 2026-04-14 09:06 | 48.74340 | 8.33582 | 25332 ft | 429 kts | 194° |
| 2026-04-14 09:06 | 48.71431 | 8.32519 | 25637 ft | 431 kts | 194° |
| 2026-04-14 09:06 | 48.68510 | 8.31446 | 25956 ft | 432 kts | 194° |
| 2026-04-14 09:07 | 48.65578 | 8.30367 | 26289 ft | 434 kts | 194° |
| 2026-04-14 09:07 | 48.62634 | 8.29288 | 26594 ft | 436 kts | 194° |
| 2026-04-14 09:07 | 48.59685 | 8.28207 | 26894 ft | 437 kts | 194° |
| 2026-04-14 09:07 | 48.56719 | 8.27122 | 27206 ft | 439 kts | 194° |
| 2026-04-14 09:08 | 48.53744 | 8.26039 | 27505 ft | 440 kts | 194° |
| 2026-04-14 09:08 | 48.50734 | 8.25137 | 27782 ft | 443 kts | 188° |
| 2026-04-14 09:08 | 48.47648 | 8.24926 | 28048 ft | 446 kts | 179° |
| 2026-04-14 09:08 | 48.44560 | 8.25441 | 28303 ft | 449 kts | 172° |
| 2026-04-14 09:09 | 48.41466 | 8.26219 | 28543 ft | 450 kts | 172° |
| 2026-04-14 09:09 | 48.38372 | 8.26985 | 28786 ft | 452 kts | 172° |
| 2026-04-14 09:09 | 48.35308 | 8.27730 | 29014 ft | 452 kts | 173° |
| 2026-04-14 09:09 | 48.32198 | 8.28474 | 29309 ft | 452 kts | 173° |
| 2026-04-14 09:10 | 48.29093 | 8.29211 | 29621 ft | 451 kts | 173° |
| 2026-04-14 09:10 | 48.25997 | 8.29950 | 29941 ft | 450 kts | 173° |
| 2026-04-14 09:10 | 48.22907 | 8.30694 | 30253 ft | 450 kts | 173° |
| 2026-04-14 09:10 | 48.19815 | 8.31444 | 30513 ft | 449 kts | 173° |
| 2026-04-14 09:11 | 48.16730 | 8.32189 | 30752 ft | 450 kts | 173° |
| 2026-04-14 09:11 | 48.13640 | 8.32935 | 30966 ft | 450 kts | 173° |
| 2026-04-14 09:11 | 48.10550 | 8.33681 | 31187 ft | 450 kts | 173° |
| 2026-04-14 09:11 | 48.07446 | 8.34435 | 31415 ft | 451 kts | 172° |
| 2026-04-14 09:12 | 48.04348 | 8.35186 | 31638 ft | 451 kts | 172° |
| 2026-04-14 09:12 | 48.01248 | 8.35937 | 31860 ft | 452 kts | 172° |
| 2026-04-14 09:12 | 47.98145 | 8.36687 | 32096 ft | 452 kts | 172° |
| 2026-04-14 09:12 | 47.95037 | 8.37440 | 32318 ft | 453 kts | 172° |
| 2026-04-14 09:13 | 47.91927 | 8.38194 | 32537 ft | 453 kts | 172° |
| 2026-04-14 09:13 | 47.88810 | 8.38946 | 32729 ft | 454 kts | 172° |
| 2026-04-14 09:13 | 47.85684 | 8.39696 | 32925 ft | 454 kts | 172° |
| 2026-04-14 09:13 | 47.82602 | 8.40430 | 33129 ft | 455 kts | 172° |
| 2026-04-14 09:14 | 47.79474 | 8.41173 | 33337 ft | 455 kts | 172° |
| 2026-04-14 09:14 | 47.76344 | 8.41916 | 33536 ft | 456 kts | 172° |
| 2026-04-14 09:14 | 47.73213 | 8.42662 | 33746 ft | 456 kts | 172° |
| 2026-04-14 09:14 | 47.70082 | 8.43411 | 33961 ft | 456 kts | 172° |
| 2026-04-14 09:15 | 47.66942 | 8.44107 | 34175 ft | 455 kts | 173° |
| 2026-04-14 09:15 | 47.63789 | 8.44660 | 34344 ft | 456 kts | 175° |
| 2026-04-14 09:15 | 47.60632 | 8.45109 | 34514 ft | 456 kts | 176° |
| 2026-04-14 09:15 | 47.57471 | 8.45507 | 34675 ft | 456 kts | 176° |
| 2026-04-14 09:16 | 47.54309 | 8.45897 | 34840 ft | 456 kts | 176° |
| 2026-04-14 09:16 | 47.51149 | 8.46306 | 35003 ft | 456 kts | 175° |
| 2026-04-14 09:16 | 47.48026 | 8.46740 | 35127 ft | 457 kts | 175° |
| 2026-04-14 09:16 | 47.44849 | 8.47204 | 35166 ft | 457 kts | 175° |
| 2026-04-14 09:17 | 47.38523 | 8.48157 | 35168 ft | 457 kts | 175° |
| 2026-04-14 09:17 | 47.32187 | 8.49098 | 35163 ft | 457 kts | 175° |
| 2026-04-14 09:18 | 47.25855 | 8.50024 | 35163 ft | 457 kts | 175° |
| 2026-04-14 09:18 | 47.19522 | 8.50949 | 35164 ft | 457 kts | 175° |
| 2026-04-14 09:19 | 47.13182 | 8.51874 | 35164 ft | 458 kts | 175° |
| 2026-04-14 09:19 | 47.06880 | 8.52790 | 35163 ft | 458 kts | 175° |
| 2026-04-14 09:20 | 47.00529 | 8.53707 | 35161 ft | 459 kts | 175° |
| 2026-04-14 09:20 | 46.94176 | 8.54618 | 35161 ft | 459 kts | 175° |
| 2026-04-14 09:21 | 46.87818 | 8.55528 | 35157 ft | 459 kts | 175° |
| 2026-04-14 09:21 | 46.81457 | 8.56442 | 35149 ft | 459 kts | 175° |
| 2026-04-14 09:22 | 46.75081 | 8.57348 | 35147 ft | 460 kts | 175° |
| 2026-04-14 09:22 | 46.68712 | 8.58256 | 35134 ft | 460 kts | 175° |
| 2026-04-14 09:23 | 46.62341 | 8.59172 | 35114 ft | 460 kts | 175° |
| 2026-04-14 09:23 | 46.55969 | 8.60086 | 35101 ft | 460 kts | 175° |
| 2026-04-14 09:24 | 46.49594 | 8.60989 | 35096 ft | 460 kts | 175° |
| 2026-04-14 09:24 | 46.43216 | 8.61893 | 35075 ft | 461 kts | 175° |
| 2026-04-14 09:25 | 46.36879 | 8.62792 | 35038 ft | 461 kts | 175° |
| 2026-04-14 09:25 | 46.30497 | 8.63691 | 35010 ft | 460 kts | 175° |
| 2026-04-14 09:26 | 46.24124 | 8.64582 | 34995 ft | 460 kts | 175° |
| 2026-04-14 09:26 | 46.17754 | 8.65457 | 34989 ft | 460 kts | 175° |
| 2026-04-14 09:27 | 46.11395 | 8.66460 | 34989 ft | 460 kts | 169° |
| 2026-04-14 09:27 | 46.05317 | 8.69290 | 34985 ft | 460 kts | 159° |
| 2026-04-14 09:28 | 45.99318 | 8.72567 | 34984 ft | 461 kts | 159° |
| 2026-04-14 09:28 | 45.93354 | 8.75798 | 34988 ft | 461 kts | 159° |
| 2026-04-14 09:29 | 45.87348 | 8.79049 | 34989 ft | 462 kts | 159° |
| 2026-04-14 09:29 | 45.81336 | 8.82286 | 34988 ft | 462 kts | 159° |
| 2026-04-14 09:30 | 45.75318 | 8.85520 | 34988 ft | 462 kts | 159° |
| 2026-04-14 09:30 | 45.69296 | 8.88758 | 34993 ft | 463 kts | 159° |
| 2026-04-14 09:31 | 45.63267 | 8.91995 | 34995 ft | 463 kts | 159° |
| 2026-04-14 09:31 | 45.57235 | 8.95233 | 34996 ft | 463 kts | 159° |
| 2026-04-14 09:32 | 45.51200 | 8.98466 | 35015 ft | 463 kts | 159° |
| 2026-04-14 09:33 | 45.42158 | 9.03285 | 35020 ft | 462 kts | 159° |
| 2026-04-14 09:33 | 45.36133 | 9.06492 | 35018 ft | 462 kts | 159° |
| 2026-04-14 09:34 | 45.30114 | 9.09688 | 35018 ft | 462 kts | 159° |
| 2026-04-14 09:34 | 45.24088 | 9.12865 | 35013 ft | 462 kts | 159° |
| 2026-04-14 09:35 | 45.18067 | 9.16034 | 34998 ft | 462 kts | 159° |
| 2026-04-14 09:35 | 45.12051 | 9.19207 | 34997 ft | 461 kts | 159° |
| 2026-04-14 09:36 | 45.06037 | 9.22364 | 34996 ft | 461 kts | 159° |
| 2026-04-14 09:36 | 45.00053 | 9.25495 | 34998 ft | 461 kts | 159° |
| 2026-04-14 09:37 | 44.94039 | 9.28635 | 34996 ft | 461 kts | 159° |
| 2026-04-14 09:37 | 44.88020 | 9.31781 | 34989 ft | 461 kts | 159° |
| 2026-04-14 09:38 | 44.82004 | 9.34918 | 34986 ft | 461 kts | 159° |
| 2026-04-14 09:38 | 44.75988 | 9.38042 | 34986 ft | 460 kts | 160° |
| 2026-04-14 09:39 | 44.69976 | 9.41144 | 34987 ft | 460 kts | 160° |
| 2026-04-14 09:39 | 44.63974 | 9.44238 | 34971 ft | 459 kts | 160° |
| 2026-04-14 09:40 | 44.57983 | 9.47341 | 34967 ft | 458 kts | 160° |
| 2026-04-14 09:40 | 44.52019 | 9.50422 | 34977 ft | 456 kts | 160° |
| 2026-04-14 09:41 | 44.46076 | 9.53474 | 34972 ft | 454 kts | 160° |
| 2026-04-14 09:41 | 44.40161 | 9.56513 | 34969 ft | 452 kts | 160° |
| 2026-04-14 09:42 | 44.34262 | 9.59532 | 34960 ft | 451 kts | 160° |
| 2026-04-14 09:42 | 44.28402 | 9.62523 | 34942 ft | 451 kts | 160° |
| 2026-04-14 09:43 | 44.22504 | 9.65521 | 34936 ft | 451 kts | 160° |
| 2026-04-14 09:43 | 44.16612 | 9.68514 | 34932 ft | 451 kts | 160° |
| 2026-04-14 09:44 | 44.10724 | 9.71497 | 34929 ft | 450 kts | 160° |
| 2026-04-14 09:44 | 44.04851 | 9.74480 | 34927 ft | 449 kts | 160° |
| 2026-04-14 09:45 | 43.98973 | 9.77447 | 34924 ft | 449 kts | 160° |
| 2026-04-14 09:45 | 43.93102 | 9.80396 | 34928 ft | 448 kts | 160° |
| 2026-04-14 09:46 | 43.87236 | 9.83343 | 34926 ft | 448 kts | 160° |
| 2026-04-14 09:46 | 43.81419 | 9.86262 | 34936 ft | 446 kts | 160° |
| 2026-04-14 09:47 | 43.75584 | 9.89183 | 34936 ft | 445 kts | 160° |
| 2026-04-14 09:47 | 43.69758 | 9.92093 | 34937 ft | 444 kts | 160° |
| 2026-04-14 09:48 | 43.63943 | 9.94992 | 34936 ft | 444 kts | 160° |
| 2026-04-14 09:48 | 43.58133 | 9.97889 | 34928 ft | 443 kts | 161° |
| 2026-04-14 09:49 | 43.52370 | 10.00754 | 34921 ft | 442 kts | 161° |
| 2026-04-14 09:49 | 43.46580 | 10.03621 | 34920 ft | 442 kts | 161° |
| 2026-04-14 09:50 | 43.40789 | 10.06485 | 34922 ft | 442 kts | 161° |
| 2026-04-14 09:50 | 43.35008 | 10.09350 | 34922 ft | 441 kts | 161° |
| 2026-04-14 09:51 | 43.29229 | 10.12197 | 34919 ft | 441 kts | 161° |
| 2026-04-14 09:51 | 43.23500 | 10.15006 | 34905 ft | 440 kts | 161° |
| 2026-04-14 09:52 | 43.17734 | 10.17836 | 34906 ft | 440 kts | 161° |
| 2026-04-14 09:52 | 43.12949 | 10.20184 | 34896 ft | 439 kts | 161° |
| 2026-04-14 09:53 | 43.07202 | 10.22991 | 34893 ft | 439 kts | 161° |
| 2026-04-14 09:53 | 43.01441 | 10.25804 | 34896 ft | 438 kts | 161° |
| 2026-04-14 09:54 | 42.95694 | 10.28602 | 34896 ft | 439 kts | 161° |
| 2026-04-14 09:54 | 42.89935 | 10.31401 | 34895 ft | 439 kts | 161° |
| 2026-04-14 09:55 | 42.84183 | 10.34192 | 34900 ft | 439 kts | 161° |
| 2026-04-14 09:55 | 42.78419 | 10.36985 | 34902 ft | 439 kts | 161° |
| 2026-04-14 09:56 | 42.72687 | 10.39752 | 34903 ft | 439 kts | 160° |
| 2026-04-14 09:56 | 42.66986 | 10.42747 | 34898 ft | 439 kts | 158° |
| 2026-04-14 09:57 | 42.61335 | 10.45919 | 34898 ft | 439 kts | 158° |
| 2026-04-14 09:57 | 42.55686 | 10.49076 | 34899 ft | 439 kts | 158° |
| 2026-04-14 09:58 | 42.50010 | 10.52177 | 34900 ft | 439 kts | 159° |
| 2026-04-14 09:58 | 42.44333 | 10.55244 | 34901 ft | 439 kts | 159° |
| 2026-04-14 09:59 | 42.38666 | 10.58350 | 34892 ft | 439 kts | 158° |
| 2026-04-14 09:59 | 42.33026 | 10.61529 | 34895 ft | 439 kts | 158° |
| 2026-04-14 10:00 | 42.27394 | 10.64712 | 34904 ft | 439 kts | 158° |
| 2026-04-14 10:00 | 42.21761 | 10.67868 | 34906 ft | 438 kts | 158° |
| 2026-04-14 10:01 | 42.16121 | 10.71007 | 34905 ft | 438 kts | 158° |
| 2026-04-14 10:01 | 42.10515 | 10.74114 | 34909 ft | 438 kts | 159° |
| 2026-04-14 10:02 | 42.04882 | 10.77244 | 34912 ft | 437 kts | 159° |
| 2026-04-14 10:02 | 41.99254 | 10.80365 | 34912 ft | 437 kts | 159° |
| 2026-04-14 10:03 | 41.93632 | 10.83475 | 34909 ft | 437 kts | 159° |
| 2026-04-14 10:03 | 41.88011 | 10.86579 | 34914 ft | 436 kts | 159° |
| 2026-04-14 10:04 | 41.82401 | 10.89669 | 34914 ft | 436 kts | 159° |
| 2026-04-14 10:04 | 41.76798 | 10.92754 | 34916 ft | 435 kts | 159° |
| 2026-04-14 10:05 | 41.71206 | 10.95833 | 34917 ft | 434 kts | 159° |
| 2026-04-14 10:05 | 41.65615 | 10.98897 | 34921 ft | 434 kts | 159° |
| 2026-04-14 10:06 | 41.60034 | 11.01948 | 34922 ft | 433 kts | 159° |
| 2026-04-14 10:06 | 41.54467 | 11.04984 | 34920 ft | 432 kts | 159° |
| 2026-04-14 10:07 | 41.48904 | 11.08006 | 34918 ft | 431 kts | 159° |
| 2026-04-14 10:07 | 41.43343 | 11.11026 | 34918 ft | 431 kts | 158° |
| 2026-04-14 10:08 | 41.37782 | 11.14050 | 34915 ft | 431 kts | 159° |
| 2026-04-14 10:08 | 41.32255 | 11.17048 | 34916 ft | 432 kts | 159° |
| 2026-04-14 10:09 | 41.26689 | 11.20056 | 34925 ft | 431 kts | 159° |
| 2026-04-14 10:09 | 41.21127 | 11.23059 | 34925 ft | 431 kts | 159° |
| 2026-04-14 10:10 | 41.15564 | 11.26053 | 34922 ft | 432 kts | 159° |
| 2026-04-14 10:10 | 41.09995 | 11.29048 | 34923 ft | 432 kts | 159° |
| 2026-04-14 10:11 | 41.04429 | 11.32042 | 34917 ft | 431 kts | 159° |
| 2026-04-14 10:11 | 40.98913 | 11.35000 | 34926 ft | 430 kts | 159° |
| 2026-04-14 10:12 | 40.93371 | 11.37958 | 34930 ft | 428 kts | 159° |
| 2026-04-14 10:12 | 40.87851 | 11.40909 | 34928 ft | 427 kts | 159° |
| 2026-04-14 10:13 | 40.82346 | 11.43842 | 34926 ft | 426 kts | 160° |
| 2026-04-14 10:13 | 40.76852 | 11.46765 | 34933 ft | 426 kts | 159° |
| 2026-04-14 10:14 | 40.71360 | 11.49695 | 34932 ft | 425 kts | 159° |
| 2026-04-14 10:14 | 40.65880 | 11.52597 | 34927 ft | 424 kts | 159° |
| 2026-04-14 10:15 | 40.60406 | 11.55486 | 34923 ft | 424 kts | 159° |
| 2026-04-14 10:15 | 40.54940 | 11.58375 | 34920 ft | 423 kts | 159° |
| 2026-04-14 10:16 | 40.49481 | 11.61261 | 34923 ft | 423 kts | 159° |
| 2026-04-14 10:16 | 40.44059 | 11.64113 | 34923 ft | 423 kts | 159° |
| 2026-04-14 10:17 | 40.38600 | 11.66978 | 34922 ft | 422 kts | 159° |
| 2026-04-14 10:17 | 40.33146 | 11.69833 | 34912 ft | 422 kts | 160° |
| 2026-04-14 10:18 | 40.24970 | 11.74124 | 34918 ft | 422 kts | 160° |
| 2026-04-14 10:18 | 40.19518 | 11.76979 | 34923 ft | 422 kts | 160° |
| 2026-04-14 10:19 | 40.14069 | 11.79822 | 34926 ft | 422 kts | 160° |
| 2026-04-14 10:19 | 40.08613 | 11.82651 | 34927 ft | 422 kts | 160° |
| 2026-04-14 10:20 | 40.03154 | 11.85487 | 34926 ft | 422 kts | 160° |
| 2026-04-14 10:20 | 39.97690 | 11.88316 | 34928 ft | 422 kts | 160° |
| 2026-04-14 10:21 | 39.92231 | 11.91140 | 34928 ft | 422 kts | 160° |
| 2026-04-14 10:21 | 39.86768 | 11.93964 | 34927 ft | 422 kts | 160° |
| 2026-04-14 10:22 | 39.81349 | 11.96759 | 34931 ft | 422 kts | 160° |
| 2026-04-14 10:22 | 39.75889 | 11.99567 | 34935 ft | 421 kts | 160° |
| 2026-04-14 10:23 | 39.70445 | 12.02380 | 34934 ft | 421 kts | 160° |
| 2026-04-14 10:23 | 39.65002 | 12.05183 | 34919 ft | 421 kts | 160° |
| 2026-04-14 10:24 | 39.59549 | 12.07971 | 34926 ft | 421 kts | 160° |
| 2026-04-14 10:24 | 39.54102 | 12.10756 | 34930 ft | 421 kts | 160° |
| 2026-04-14 10:25 | 39.48655 | 12.13542 | 34931 ft | 420 kts | 160° |
| 2026-04-14 10:25 | 39.45951 | 12.14923 | 34497 ft | 417 kts | 160° |
| 2026-04-14 10:25 | 39.43257 | 12.16296 | 33899 ft | 415 kts | 160° |
| 2026-04-14 10:26 | 39.40576 | 12.17663 | 33192 ft | 413 kts | 160° |
| 2026-04-14 10:26 | 39.37903 | 12.19024 | 32501 ft | 412 kts | 161° |
| 2026-04-14 10:26 | 39.35251 | 12.20371 | 31960 ft | 407 kts | 161° |
| 2026-04-14 10:26 | 39.32632 | 12.21696 | 31444 ft | 402 kts | 161° |
| 2026-04-14 10:27 | 39.30047 | 12.23005 | 30946 ft | 397 kts | 161° |
| 2026-04-14 10:27 | 39.27492 | 12.24302 | 30465 ft | 392 kts | 161° |
| 2026-04-14 10:27 | 39.24970 | 12.25585 | 29963 ft | 387 kts | 161° |
| 2026-04-14 10:27 | 39.22476 | 12.26852 | 29363 ft | 383 kts | 161° |
| 2026-04-14 10:28 | 39.20042 | 12.28095 | 28733 ft | 380 kts | 161° |
| 2026-04-14 10:28 | 39.17599 | 12.29354 | 28099 ft | 377 kts | 161° |
| 2026-04-14 10:28 | 39.15168 | 12.30596 | 27479 ft | 374 kts | 161° |
| 2026-04-14 10:28 | 39.12757 | 12.31817 | 26891 ft | 371 kts | 161° |
| 2026-04-14 10:29 | 39.10364 | 12.33021 | 26308 ft | 368 kts | 161° |
| 2026-04-14 10:29 | 39.07982 | 12.34216 | 25726 ft | 366 kts | 161° |
| 2026-04-14 10:29 | 39.05619 | 12.35395 | 25143 ft | 364 kts | 161° |
| 2026-04-14 10:29 | 39.03265 | 12.36574 | 24574 ft | 362 kts | 160° |
| 2026-04-14 10:30 | 39.00916 | 12.37751 | 24010 ft | 361 kts | 160° |
| 2026-04-14 10:30 | 38.98581 | 12.38920 | 23472 ft | 359 kts | 160° |
| 2026-04-14 10:30 | 38.96255 | 12.40084 | 22852 ft | 357 kts | 160° |
| 2026-04-14 10:30 | 38.93948 | 12.41236 | 22220 ft | 355 kts | 160° |
| 2026-04-14 10:31 | 38.91653 | 12.42383 | 21636 ft | 353 kts | 160° |
| 2026-04-14 10:31 | 38.89371 | 12.43521 | 21086 ft | 350 kts | 160° |
| 2026-04-14 10:31 | 38.87108 | 12.44654 | 20538 ft | 347 kts | 160° |
| 2026-04-14 10:31 | 38.84890 | 12.45848 | 19893 ft | 344 kts | 158° |
| 2026-04-14 10:32 | 38.82717 | 12.47128 | 19197 ft | 342 kts | 156° |
| 2026-04-14 10:32 | 38.80607 | 12.48432 | 18534 ft | 340 kts | 156° |
| 2026-04-14 10:32 | 38.78481 | 12.49758 | 17822 ft | 338 kts | 156° |
| 2026-04-14 10:32 | 38.76370 | 12.51068 | 17089 ft | 335 kts | 156° |
| 2026-04-14 10:33 | 38.74274 | 12.52353 | 16378 ft | 333 kts | 156° |
| 2026-04-14 10:33 | 38.72190 | 12.53616 | 15688 ft | 330 kts | 156° |
| 2026-04-14 10:33 | 38.70118 | 12.54862 | 15008 ft | 328 kts | 156° |
| 2026-04-14 10:33 | 38.68059 | 12.56098 | 14347 ft | 326 kts | 156° |
| 2026-04-14 10:34 | 38.63982 | 12.58536 | 13014 ft | 320 kts | 156° |
| 2026-04-14 10:34 | 38.61971 | 12.59738 | 12318 ft | 317 kts | 156° |
| 2026-04-14 10:34 | 38.59979 | 12.60928 | 11638 ft | 315 kts | 156° |
| 2026-04-14 10:35 | 38.58000 | 12.62107 | 10984 ft | 312 kts | 156° |
| 2026-04-14 10:35 | 38.56038 | 12.63279 | 10426 ft | 310 kts | 156° |
| 2026-04-14 10:35 | 38.54136 | 12.64419 | 10303 ft | 295 kts | 156° |
| 2026-04-14 10:35 | 38.52323 | 12.65509 | 10161 ft | 282 kts | 156° |
| 2026-04-14 10:36 | 38.50567 | 12.66561 | 9873 ft | 277 kts | 157° |
| 2026-04-14 10:36 | 38.48829 | 12.67600 | 9471 ft | 275 kts | 157° |
| 2026-04-14 10:36 | 38.47099 | 12.68628 | 9065 ft | 273 kts | 157° |
| 2026-04-14 10:36 | 38.45381 | 12.69644 | 8653 ft | 272 kts | 157° |
| 2026-04-14 10:37 | 38.43668 | 12.70656 | 8255 ft | 270 kts | 157° |
| 2026-04-14 10:37 | 38.41997 | 12.71647 | 7978 ft | 264 kts | 156° |
| 2026-04-14 10:37 | 38.40367 | 12.72619 | 7839 ft | 253 kts | 156° |
| 2026-04-14 10:37 | 38.38796 | 12.73552 | 7625 ft | 246 kts | 157° |
| 2026-04-14 10:38 | 38.37251 | 12.74470 | 7309 ft | 244 kts | 157° |
| 2026-04-14 10:38 | 38.35716 | 12.75381 | 6973 ft | 243 kts | 157° |
| 2026-04-14 10:38 | 38.34184 | 12.76288 | 6636 ft | 242 kts | 157° |
| 2026-04-14 10:38 | 38.32654 | 12.77194 | 6294 ft | 241 kts | 157° |
| 2026-04-14 10:39 | 38.31136 | 12.78092 | 5947 ft | 240 kts | 157° |
| 2026-04-14 10:39 | 38.29628 | 12.78986 | 5667 ft | 236 kts | 157° |
| 2026-04-14 10:39 | 38.28185 | 12.79844 | 5566 ft | 222 kts | 157° |
| 2026-04-14 10:39 | 38.27264 | 12.80388 | 5423 ft | 219 kts | 157° |
| 2026-04-14 10:40 | 38.25445 | 12.81461 | 5162 ft | 217 kts | 157° |
| 2026-04-14 10:40 | 38.24079 | 12.82261 | 5015 ft | 215 kts | 158° |
| 2026-04-14 10:40 | 38.22713 | 12.83017 | 4630 ft | 214 kts | 158° |
| 2026-04-14 10:40 | 38.21343 | 12.83755 | 4231 ft | 214 kts | 158° |
| 2026-04-14 10:41 | 38.19973 | 12.84489 | 3895 ft | 213 kts | 158° |
| 2026-04-14 10:41 | 38.18599 | 12.85225 | 3641 ft | 214 kts | 158° |
| 2026-04-14 10:41 | 38.17696 | 12.85708 | 3497 ft | 210 kts | 158° |
| 2026-04-14 10:41 | 38.16342 | 12.86436 | 3284 ft | 207 kts | 158° |
| 2026-04-14 10:42 | 38.15037 | 12.87140 | 3090 ft | 207 kts | 158° |
| 2026-04-14 10:42 | 38.13721 | 12.87848 | 2892 ft | 202 kts | 158° |
| 2026-04-14 10:42 | 38.12467 | 12.88544 | 2699 ft | 192 kts | 153° |
| 2026-04-14 10:42 | 38.11600 | 12.89740 | 2489 ft | 185 kts | 112° |
| 2026-04-14 10:43 | 38.11584 | 12.91320 | 2350 ft | 182 kts | 69° |
| 2026-04-14 10:43 | 38.12217 | 12.92700 | 2294 ft | 180 kts | 60° |
| 2026-04-14 10:43 | 38.12748 | 12.94147 | 2305 ft | 181 kts | 68° |
| 2026-04-14 10:43 | 38.13205 | 12.95596 | 2289 ft | 175 kts | 69° |
| 2026-04-14 10:44 | 38.13640 | 12.97004 | 2056 ft | 165 kts | 68° |
| 2026-04-14 10:44 | 38.14050 | 12.98309 | 1820 ft | 155 kts | 68° |
| 2026-04-14 10:44 | 38.14449 | 12.99558 | 1623 ft | 151 kts | 66° |
| 2026-04-14 10:44 | 38.14844 | 13.00778 | 1424 ft | 148 kts | 65° |
| 2026-04-14 10:45 | 38.15245 | 13.01969 | 1242 ft | 145 kts | 63° |
| 2026-04-14 10:45 | 38.15637 | 13.03140 | 1061 ft | 144 kts | 64° |
| 2026-04-14 10:45 | 38.16022 | 13.04317 | 880 ft | 144 kts | 65° |
| 2026-04-14 10:45 | 38.16393 | 13.05497 | 667 ft | 144 kts | 66° |
| 2026-04-14 10:46 | 38.16761 | 13.06666 | 490 ft | 142 kts | 64° |
| 2026-04-14 10:46 | 38.17148 | 13.07805 | 285 ft | 140 kts | 64° |
| 2026-04-14 10:46 | 38.17529 | 13.08941 | 98 ft | 138 kts | 63° |
| 2026-04-14 10:46 | 38.17871 | 13.09950 | 61 ft | 105 kts | 67° |
| 2026-04-14 10:47 | 38.18089 | 13.10605 | 68 ft | 61 kts | 66° |
| 2026-04-14 10:47 | 38.18234 | 13.11038 | 61 ft | 49 kts | 66° |
| 2026-04-14 10:47 | 38.18362 | 13.11419 | 69 ft | 44 kts | 67° |
| 2026-04-14 10:47 | 38.18466 | 13.11730 | 66 ft | 25 kts | 67° |
| 2026-04-14 10:48 | 38.18520 | 13.11877 | 69 ft | 15 kts | 48° |
| 2026-04-14 10:48 | 38.18595 | 13.11821 | 63 ft | 17 kts | 280° |
| 2026-04-14 10:48 | 38.18610 | 13.11658 | 64 ft | 20 kts | 277° |
| 2026-04-14 10:48 | 38.18599 | 13.11508 | 62 ft | 17 kts | 246° |
| 2026-04-14 10:49 | 38.18549 | 13.11361 | 62 ft | 19 kts | 246° |
| 2026-04-14 10:49 | 38.18496 | 13.11203 | 64 ft | 20 kts | 247° |
| 2026-04-14 10:49 | 38.18444 | 13.11051 | 61 ft | 14 kts | 246° |
| 2026-04-14 10:49 | 38.18428 | 13.10967 | 65 ft | 10 kts | 286° |
| 2026-04-14 10:50 | 38.18466 | 13.10907 | 60 ft | 9 kts | 293° |
| 2026-04-14 10:50 | 38.18485 | 13.10820 | 61 ft | 11 kts | 289° |
| 2026-04-14 10:50 | 38.18505 | 13.10735 | 64 ft | 10 kts | 274° |
| 2026-04-14 10:50 | 38.18482 | 13.10648 | 58 ft | 11 kts | 246° |
| 2026-04-14 10:51 | 38.18449 | 13.10551 | 60 ft | 10 kts | 246° |
| 2026-04-14 10:51 | 38.18437 | 13.10518 | 64 ft | 3 kts | 245° |
| 2026-04-14 10:51 | 38.18445 | 13.10495 | 65 ft | 3 kts | 314° |
| 2026-04-14 10:51 | 38.18468 | 13.10481 | 58 ft | 4 kts | 336° |
| 2026-04-14 10:52 | 38.18484 | 13.10472 | 60 ft | 1 kts | 337° |
| 2026-04-14 10:52 | 38.18492 | 13.10468 | 63 ft | 1 kts | 337° |
| 2026-04-14 10:52 | 38.18496 | 13.10466 | 59 ft | 0 kts | 337° |